Time;durP1;ratioP1;P1;durP2;ratioP2;P2;SDS_P1;SDS_P2;PMS_P1;PMS_P2;Temp;Humidity;BMP_temperature;BMP_pressure;BME280_temperature;BME280_humidity;BME280_pressure;Samples;Min_cycle;Max_cycle;Signal;HPM_P1;HPM_P2
2021/12/09 00:01:38;;;;;;;26.05;8.77;;;;;;;2.77;100.00;99873.56;5031566;28;20073;-74
2021/12/09 00:04:10;;;;;;;25.33;8.50;;;;;;;2.76;100.00;99880.19;5024471;28;20055;-78
2021/12/09 00:06:37;;;;;;;24.70;9.73;;;;;;;2.72;100.00;99869.19;5023434;28;20426;-75
2021/12/09 00:09:07;;;;;;;27.40;9.48;;;;;;;2.71;100.00;99881.28;5021243;28;20104;-75
2021/12/09 00:11:42;;;;;;;23.75;9.35;;;;;;;2.71;100.00;99879.31;5024541;28;20136;-75
2021/12/09 00:14:16;;;;;;;;;;;;;;;2.70;100.00;99879.69;5031471;28;20136;-75
2021/12/09 00:16:43;;;;;;;22.13;8.93;;;;;;;2.68;100.00;99879.28;5028971;28;19928;-75
2021/12/09 00:19:10;;;;;;;23.95;9.77;;;;;;;2.49;100.00;99863.72;5028691;28;20147;-74
2021/12/09 00:21:36;;;;;;;22.52;9.55;;;;;;;2.57;100.00;99878.31;5028734;28;20199;-75
2021/12/09 00:24:03;;;;;;;25.35;9.18;;;;;;;2.54;100.00;99884.50;5026270;28;20063;-76
2021/12/09 00:26:30;;;;;;;23.88;9.45;;;;;;;2.50;100.00;99878.94;5027736;28;20057;-75
2021/12/09 00:28:57;;;;;;;20.58;8.52;;;;;;;2.47;100.00;99878.91;5031414;28;20530;-75
2021/12/09 00:31:24;;;;;;;21.83;8.20;;;;;;;2.45;100.00;99881.19;5029199;28;20336;-75
2021/12/09 00:33:50;;;;;;;20.55;7.82;;;;;;;2.45;100.00;99875.75;5029621;28;20786;-76
2021/12/09 00:36:26;;;;;;;18.50;7.68;;;;;;;2.41;100.00;99872.16;5027015;28;20073;-75
2021/12/09 00:38:54;;;;;;;19.20;8.85;;;;;;;2.40;100.00;99876.06;5038740;28;20466;-76
2021/12/09 00:41:21;;;;;;;17.52;8.15;;;;;;;2.34;100.00;99878.28;5031410;28;20045;-74
2021/12/09 00:43:48;;;;;;;18.88;7.90;;;;;;;2.35;100.00;99874.41;5032402;28;20505;-75
2021/12/09 00:46:15;;;;;;;20.48;8.70;;;;;;;2.28;100.00;99871.53;5024134;28;20049;-76
2021/12/09 00:48:42;;;;;;;25.48;9.80;;;;;;;2.32;100.00;99883.31;5024842;28;20068;-76
2021/12/09 00:51:11;;;;;;;20.63;9.63;;;;;;;2.33;100.00;99884.13;5025232;28;20144;-76
2021/12/09 00:53:38;;;;;;;20.45;9.02;;;;;;;2.30;100.00;99879.38;5022227;28;20053;-75
2021/12/09 00:56:08;;;;;;;27.85;9.50;;;;;;;2.30;100.00;99879.38;5028796;28;20046;-74
2021/12/09 00:58:35;;;;;;;20.15;8.13;;;;;;;2.25;100.00;99874.19;5026440;28;20467;-74
2021/12/09 01:01:04;;;;;;;21.88;9.52;;;;;;;2.21;100.00;99871.41;5026191;28;20045;-75
2021/12/09 01:03:32;;;;;;;23.38;9.40;;;;;;;2.17;100.00;99876.00;5024489;28;20502;-75
2021/12/09 01:05:58;;;;;;;17.77;7.40;;;;;;;2.11;100.00;99872.00;5027203;28;20057;-76
2021/12/09 01:08:40;;;;;;;22.65;9.10;;;;;;;2.09;100.00;99878.94;5039682;28;20108;-76
2021/12/09 01:11:07;;;;;;;23.98;9.05;;;;;;;2.08;100.00;99880.09;5023682;28;20092;-75
2021/12/09 01:13:34;;;;;;;22.73;8.65;;;;;;;2.08;100.00;99888.28;5019114;28;20056;-75
2021/12/09 01:16:01;;;;;;;25.52;9.85;;;;;;;2.08;100.00;99896.47;5025290;28;20046;-77
2021/12/09 01:18:32;;;;;;;28.00;9.40;;;;;;;2.10;100.00;99891.47;5024058;28;20879;-75
2021/12/09 01:21:00;;;;;;;22.08;9.45;;;;;;;2.10;100.00;99899.66;5025269;28;20417;-75
2021/12/09 01:23:26;;;;;;;23.88;10.15;;;;;;;2.05;100.00;99895.28;5013763;28;20136;-75
2021/12/09 01:25:58;;;;;;;27.50;10.65;;;;;;;2.02;100.00;99893.25;5040288;28;20144;-75
2021/12/09 01:28:28;;;;;;;30.13;9.85;;;;;;;2.02;100.00;99895.19;5046056;28;20509;-76
2021/12/09 01:31:01;;;;;;;29.13;8.77;;;;;;;2.00;100.00;99908.41;5026086;28;20544;-76
2021/12/09 01:33:30;;;;;;;24.50;9.77;;;;;;;2.00;100.00;99908.41;5017009;28;20053;-77
2021/12/09 01:35:57;;;;;;;25.45;9.60;;;;;;;1.97;100.00;99906.41;5023295;28;20148;-74
2021/12/09 01:38:27;;;;;;;23.70;9.27;;;;;;;1.90;100.00;99909.78;5023240;28;20050;-75
2021/12/09 01:40:55;;;;;;;22.73;8.55;;;;;;;1.88;100.00;99914.00;5028926;28;20432;-75
2021/12/09 01:43:23;;;;;;;24.80;9.77;;;;;;;1.86;100.00;99925.28;5025101;28;20115;-75
2021/12/09 01:46:02;;;;;;;30.20;10.52;;;;;;;1.84;100.00;99926.78;5030420;28;20136;-75
2021/12/09 01:48:28;;;;;;;25.52;9.48;;;;;;;1.78;100.00;99920.81;5034854;28;20132;-74
2021/12/09 01:50:55;;;;;;;26.73;8.98;;;;;;;1.86;100.00;99927.22;5032941;28;20049;-75
2021/12/09 01:53:21;;;;;;;24.23;9.00;;;;;;;1.86;100.00;99927.22;5029388;28;20157;-76
2021/12/09 01:55:49;;;;;;;22.63;8.70;;;;;;;1.84;100.00;99929.50;5027733;28;20056;-76
2021/12/09 01:58:15;;;;;;;24.25;8.32;;;;;;;1.78;100.00;99922.75;5031756;28;20056;-76
2021/12/09 02:00:42;;;;;;;24.63;9.43;;;;;;;1.73;100.00;99931.22;5030391;28;20059;-75
2021/12/09 02:03:09;;;;;;;24.42;8.57;;;;;;;1.74;100.00;99935.53;5032272;28;20050;-75
2021/12/09 02:05:40;;;;;;;26.27;9.60;;;;;;;1.70;100.00;99935.47;5032484;28;20494;-76
2021/12/09 02:08:09;;;;;;;22.65;9.05;;;;;;;1.71;100.00;99931.59;5031112;28;20088;-76
2021/12/09 02:10:35;;;;;;;26.00;9.07;;;;;;;1.71;100.00;99933.50;5037892;28;20127;-75
2021/12/09 02:13:02;;;;;;;25.95;9.25;;;;;;;1.72;100.00;99935.88;5029605;28;20597;-77
2021/12/09 02:15:28;;;;;;;23.90;8.10;;;;;;;1.67;100.00;99935.38;5029499;28;20156;-75
2021/12/09 02:17:56;;;;;;;22.92;8.10;;;;;;;1.63;100.00;99935.31;5033654;28;20049;-75
2021/12/09 02:20:32;;;;;;;23.58;8.95;;;;;;;1.58;100.00;99929.31;5033662;28;20084;-75
2021/12/09 02:22:59;;;;;;;23.75;7.85;;;;;;;1.59;100.00;99930.94;5037502;28;20144;-75
2021/12/09 02:25:26;;;;;;;22.55;8.57;;;;;;;1.56;100.00;99929.72;5031596;28;20064;-76
2021/12/09 02:27:52;;;;;;;24.27;8.65;;;;;;;1.57;100.00;99925.81;5032399;28;20049;-74
2021/12/09 02:30:19;;;;;;;22.35;8.40;;;;;;;1.57;100.00;99927.75;5031338;28;20053;-76
2021/12/09 02:32:46;;;;;;;24.50;8.18;;;;;;;1.57;100.00;99928.56;5030100;28;20064;-76
2021/12/09 02:35:12;;;;;;;27.55;8.85;;;;;;;1.53;100.00;99915.97;5030813;28;20063;-75
2021/12/09 02:37:39;;;;;;;26.63;8.85;;;;;;;1.51;100.00;99919.06;5035478;28;20124;-75
2021/12/09 02:40:07;;;;;;;28.15;8.82;;;;;;;1.54;100.00;99920.28;5032290;28;20077;-75
2021/12/09 02:42:34;;;;;;;24.60;8.38;;;;;;;1.53;100.00;99921.44;5034509;28;20083;-75
2021/12/09 02:45:05;;;;;;;22.00;7.85;;;;;;;1.49;100.00;99917.84;5027070;28;20141;-76
2021/12/09 02:47:33;;;;;;;25.10;9.18;;;;;;;1.42;100.00;99914.97;5027099;28;20473;-78
2021/12/09 02:50:00;;;;;;;21.10;8.05;;;;;;;1.47;100.00;99925.59;5030124;28;20502;-76
2021/12/09 02:52:27;;;;;;;23.75;8.02;;;;;;;1.47;100.00;99929.09;5030307;28;20100;-76
2021/12/09 02:54:54;;;;;;;20.25;7.68;;;;;;;1.49;100.00;99926.03;5030827;28;20130;-77
2021/12/09 02:57:20;;;;;;;28.60;7.65;;;;;;;1.49;100.00;99928.75;5029122;28;20120;-75
2021/12/09 02:59:47;;;;;;;22.20;8.13;;;;;;;1.49;100.00;99931.47;5034876;28;20044;-74
2021/12/09 03:02:14;;;;;;;21.25;8.77;;;;;;;1.47;100.00;99920.94;5029261;28;20053;-76
2021/12/09 03:04:40;;;;;;;21.60;8.55;;;;;;;1.48;100.00;99933.41;5032029;28;20085;-75
2021/12/09 03:07:16;;;;;;;24.83;8.95;;;;;;;1.44;100.00;99929.81;5030431;28;20085;-76
2021/12/09 03:09:49;;;;;;;;;;;;;;;1.44;100.00;99934.47;5037761;28;20048;-76
2021/12/09 03:12:28;;;;;;;22.83;7.97;;;;;;;1.41;100.00;99929.72;5039474;28;19921;-76
2021/12/09 03:14:55;;;;;;;21.02;8.18;;;;;;;1.36;100.00;99932.72;5029612;28;20041;-76
2021/12/09 03:17:22;;;;;;;22.92;9.02;;;;;;;1.32;100.00;99926.41;5031412;28;20063;-75
2021/12/09 03:19:49;;;;;;;17.08;7.55;;;;;;;1.33;100.00;99931.50;5030431;28;20072;-76
2021/12/09 03:22:16;;;;;;;19.58;8.65;;;;;;;1.28;100.00;99920.88;5047374;28;20053;-75
2021/12/09 03:24:43;;;;;;;20.27;7.82;;;;;;;1.28;100.00;99922.81;5042806;28;20053;-75
2021/12/09 03:27:10;;;;;;;20.15;8.48;;;;;;;1.26;100.00;99923.19;5048344;28;20075;-75
2021/12/09 03:29:38;;;;;;;21.23;7.88;;;;;;;1.24;100.00;99930.09;5017589;28;20164;-75
2021/12/09 03:32:16;;;;;;;18.38;8.05;;;;;;;1.21;100.00;99926.16;5027179;28;20506;-75
2021/12/09 03:34:44;;;;;;;21.58;8.23;;;;;;;1.21;100.00;99931.59;5030577;28;20231;-75
2021/12/09 03:37:18;;;;;;;22.08;8.00;;;;;;;1.17;100.00;99925.28;5043860;28;20096;-75
2021/12/09 03:39:46;;;;;;;28.45;8.88;;;;;;;1.18;100.00;99926.09;5025688;28;20114;-75
2021/12/09 03:42:14;;;;;;;19.40;8.18;;;;;;;1.16;100.00;99923.72;5030219;28;20136;-75
2021/12/09 03:44:43;;;;;;;25.05;8.98;;;;;;;1.15;100.00;99924.84;5040685;28;20057;-76
2021/12/09 03:47:12;;;;;;;24.15;8.63;;;;;;;1.12;100.00;99922.06;5037403;28;20312;-76
2021/12/09 03:49:42;;;;;;;22.35;9.25;;;;;;;1.14;100.00;99920.53;5029233;28;20049;-75
2021/12/09 03:52:10;;;;;;;16.90;7.55;;;;;;;1.15;100.00;99935.75;5030179;28;20107;-75
2021/12/09 03:54:36;;;;;;;23.50;10.07;;;;;;;1.17;100.00;99932.66;5031464;28;20585;-75
2021/12/09 03:57:04;;;;;;;21.17;8.43;;;;;;;1.15;100.00;99932.25;5030386;28;20510;-75
2021/12/09 03:59:30;;;;;;;25.85;8.63;;;;;;;1.13;100.00;99935.31;5030399;28;20434;-75
2021/12/09 04:01:57;;;;;;;26.33;8.88;;;;;;;1.14;100.00;99933.38;5034375;28;20061;-76
2021/12/09 04:04:24;;;;;;;21.98;8.70;;;;;;;1.15;100.00;99934.97;5032138;28;20053;-75
2021/12/09 04:06:51;;;;;;;23.08;8.50;;;;;;;1.15;100.00;99932.25;5034590;28;20486;-78
2021/12/09 04:09:19;;;;;;;16.75;7.38;;;;;;;1.16;100.00;99923.72;5031264;28;20053;-74
2021/12/09 04:11:46;;;;;;;19.70;7.88;;;;;;;1.20;100.00;99931.97;5029338;28;20494;-78
2021/12/09 04:14:12;;;;;;;20.48;8.80;;;;;;;1.16;100.00;99925.63;5030216;28;20157;-76
2021/12/09 04:16:39;;;;;;;18.83;7.90;;;;;;;1.12;100.00;99932.94;5030145;28;20128;-76
2021/12/09 04:19:08;;;;;;;18.40;8.07;;;;;;;1.11;100.00;99936.81;5030225;28;20569;-76
2021/12/09 04:21:36;;;;;;;19.33;7.57;;;;;;;1.07;100.00;99935.91;5034804;28;20127;-74
2021/12/09 04:24:08;;;;;;;23.17;7.82;;;;;;;1.09;100.00;99945.34;5030177;28;20124;-75
2021/12/09 04:26:36;;;;;;;17.45;6.97;;;;;;;1.10;100.00;99952.38;5042475;28;20157;-75
2021/12/09 04:29:03;;;;;;;18.35;7.93;;;;;;;1.07;100.00;99941.38;5031220;28;20107;-74
2021/12/09 04:31:30;;;;;;;24.92;8.82;;;;;;;1.07;100.00;99952.28;5035290;28;20057;-74
2021/12/09 04:33:57;;;;;;;20.27;7.88;;;;;;;1.03;100.00;99943.22;5028372;28;20068;-76
2021/12/09 04:36:25;;;;;;;21.17;8.48;;;;;;;1.02;100.00;99944.38;5032971;28;20095;-78
2021/12/09 04:38:53;;;;;;;20.95;8.55;;;;;;;1.00;100.00;99942.00;5025519;28;20505;-75
2021/12/09 04:41:20;;;;;;;20.92;8.38;;;;;;;1.00;100.00;99936.56;5028354;28;20148;-75
2021/12/09 04:43:47;;;;;;;19.63;8.23;;;;;;;1.01;100.00;99942.81;5029855;28;20084;-75
2021/12/09 04:46:15;;;;;;;20.10;9.05;;;;;;;1.01;100.00;99931.91;5029528;28;20136;-77
2021/12/09 04:48:42;;;;;;;20.30;8.60;;;;;;;0.99;100.00;99942.34;5040516;28;20053;-75
2021/12/09 04:51:09;;;;;;;21.35;9.35;;;;;;;1.01;100.00;99940.06;5029284;28;20071;-78
2021/12/09 04:53:37;;;;;;;20.98;9.45;;;;;;;0.95;100.00;99946.94;5031708;28;20122;-77
2021/12/09 04:56:03;;;;;;;18.55;8.45;;;;;;;0.93;100.00;99958.16;5028338;28;20136;-75
2021/12/09 04:58:30;;;;;;;19.27;7.75;;;;;;;0.90;100.00;99949.91;5029033;28;20113;-76
2021/12/09 05:00:59;;;;;;;23.77;9.25;;;;;;;0.88;100.00;99949.47;5028246;28;20049;-77
2021/12/09 05:03:25;;;;;;;24.27;9.38;;;;;;;0.86;100.00;99952.53;5042161;28;20464;-76
2021/12/09 05:05:54;;;;;;;21.02;8.38;;;;;;;0.86;100.00;99952.53;5028296;28;20557;-76
2021/12/09 05:08:23;;;;;;;23.40;9.60;;;;;;;0.86;100.00;99958.00;5028950;28;20115;-76
2021/12/09 05:11:02;;;;;;;22.17;9.02;;;;;;;0.82;100.00;99953.59;5028203;28;20099;-77
2021/12/09 05:13:31;;;;;;;19.02;9.77;;;;;;;0.87;100.00;99964.25;5028309;28;20422;-75
2021/12/09 05:15:58;;;;;;;21.92;9.48;;;;;;;0.88;100.00;99965.81;5031342;28;20140;-76
2021/12/09 05:18:28;;;;;;;22.40;9.05;;;;;;;0.84;100.00;99960.28;5031958;28;20041;-74
2021/12/09 05:20:55;;;;;;;25.63;10.25;;;;;;;0.91;100.00;99976.00;5035793;28;20046;-75
2021/12/09 05:23:23;;;;;;;33.95;10.25;;;;;;;0.90;100.00;99971.69;5027938;28;20132;-77
2021/12/09 05:25:49;;;;;;;24.90;8.45;;;;;;;0.86;100.00;99981.69;5042202;28;20337;-77
2021/12/09 05:28:17;;;;;;;24.17;8.95;;;;;;;0.81;100.00;99971.84;5041718;28;20037;-76
2021/12/09 05:33:33;;;;;;;23.80;9.52;;;;;;;0.78;100.00;99988.13;5034421;28;20528;-77
2021/12/09 05:36:00;;;;;;;23.83;8.90;;;;;;;0.72;100.00;99984.88;5033446;28;20168;-76
2021/12/09 05:38:27;;;;;;;23.55;9.25;;;;;;;0.70;100.00;99984.41;5036206;28;20499;-75
2021/12/09 05:40:54;;;;;;;18.50;8.00;;;;;;;0.69;100.00;99988.28;5040755;28;20071;-78
2021/12/09 05:43:21;;;;;;;22.83;9.23;;;;;;;0.68;100.00;99986.72;5040321;28;20132;-74
2021/12/09 05:45:48;;;;;;;20.85;9.77;;;;;;;0.70;100.00;99991.78;5033264;28;20077;-75
2021/12/09 05:48:16;;;;;;;25.15;9.60;;;;;;;0.70;100.00;99997.22;5041051;28;20148;-75
2021/12/09 05:50:43;;;;;;;24.20;9.85;;;;;;;0.70;100.00;99994.50;5033581;28;20072;-75
2021/12/09 05:53:10;;;;;;;26.48;8.85;;;;;;;0.67;100.00;99997.94;5034947;28;20053;-75
2021/12/09 05:55:38;;;;;;;26.02;9.90;;;;;;;0.68;100.00;99996.78;5037849;28;20168;-75
2021/12/09 05:58:05;;;;;;;23.90;9.23;;;;;;;0.63;100.00;99997.03;5037190;28;20049;-74
2021/12/09 06:00:31;;;;;;;24.60;9.10;;;;;;;0.60;100.00;99998.53;5034179;28;20049;-76
2021/12/09 06:02:58;;;;;;;20.95;9.35;;;;;;;0.61;100.00;100000.09;5034170;28;20069;-75
2021/12/09 06:05:24;;;;;;;21.27;10.60;;;;;;;0.63;100.00;99999.75;5038659;28;20053;-75
2021/12/09 06:07:51;;;;;;;25.38;9.80;;;;;;;0.65;100.00;99998.28;5039277;28;20055;-77
2021/12/09 06:10:17;;;;;;;23.95;9.95;;;;;;;0.64;100.00;100001.34;5034761;28;20516;-75
2021/12/09 06:12:44;;;;;;;28.63;9.88;;;;;;;0.60;100.00;100005.94;5043702;28;20510;-75
2021/12/09 06:15:11;;;;;;;24.30;9.43;;;;;;;0.62;100.00;100011.78;5035238;28;20088;-76
2021/12/09 06:17:38;;;;;;;27.67;9.35;;;;;;;0.60;100.00;100011.38;5035928;28;20049;-74
2021/12/09 06:20:05;;;;;;;22.77;9.55;;;;;;;0.59;100.00;100007.03;5023268;28;20136;-74
2021/12/09 06:22:31;;;;;;;23.17;9.73;;;;;;;0.60;100.00;100014.09;5035182;28;20057;-75
2021/12/09 06:24:58;;;;;;;27.65;9.73;;;;;;;0.58;100.00;100010.91;5044127;28;20136;-75
2021/12/09 06:27:25;;;;;;;22.80;9.90;;;;;;;0.60;100.00;100014.09;5037453;28;20053;-74
2021/12/09 06:29:51;;;;;;;23.95;10.65;;;;;;;0.56;100.00;100005.00;5034603;28;20053;-76
2021/12/09 06:32:18;;;;;;;21.27;9.30;;;;;;;0.62;100.00;100017.25;5034938;28;20080;-79
2021/12/09 06:34:44;;;;;;;25.88;10.27;;;;;;;0.62;100.00;100017.25;5033219;28;20088;-74
2021/12/09 06:37:11;;;;;;;27.00;9.35;;;;;;;0.62;100.00;100012.59;5033845;28;20506;-74
2021/12/09 06:39:39;;;;;;;24.83;9.40;;;;;;;0.58;100.00;100011.72;5039188;28;20132;-74
2021/12/09 06:42:07;;;;;;;22.88;9.70;;;;;;;0.60;100.00;100017.59;5033188;28;20080;-74
2021/12/09 06:44:33;;;;;;;21.77;8.50;;;;;;;0.59;100.00;100018.72;5025173;28;20132;-74
2021/12/09 06:47:00;;;;;;;30.00;10.30;;;;;;;0.58;100.00;100010.91;5031363;28;20049;-74
2021/12/09 06:49:26;;;;;;;20.50;9.60;;;;;;;0.55;100.00;100009.69;5031494;28;20065;-76
2021/12/09 06:51:53;;;;;;;27.02;9.98;;;;;;;0.57;100.00;100012.06;5031246;28;20129;-73
2021/12/09 06:54:19;;;;;;;25.02;9.05;;;;;;;0.51;100.00;100000.63;5029605;28;20465;-74
2021/12/09 06:56:46;;;;;;;26.58;9.60;;;;;;;0.50;100.00;100009.16;5030669;28;20057;-75
2021/12/09 06:59:13;;;;;;;25.30;10.70;;;;;;;0.56;100.00;100013.97;5030765;28;20128;-76
2021/12/09 07:01:39;;;;;;;22.58;10.13;;;;;;;0.59;100.00;100010.56;5030542;28;20164;-74
2021/12/09 07:04:08;;;;;;;30.77;10.68;;;;;;;0.61;100.00;100010.22;5029480;28;20056;-74
2021/12/09 07:06:37;;;;;;;30.40;11.70;;;;;;;0.61;100.00;100012.94;5022437;28;20042;-77
2021/12/09 07:09:05;;;;;;;29.83;12.05;;;;;;;0.61;100.00;100010.22;5027339;28;20065;-75
2021/12/09 07:11:37;;;;;;;38.38;13.13;;;;;;;0.60;100.00;100008.66;5033801;28;20567;-76
2021/12/09 07:14:04;;;;;;;30.73;11.93;;;;;;;0.61;100.00;100011.00;5028705;28;20136;-75
2021/12/09 07:16:31;;;;;;;33.13;10.73;;;;;;;0.60;100.00;100017.59;5028434;28;20071;-75
2021/12/09 07:18:59;;;;;;;23.48;9.30;;;;;;;0.59;100.00;100024.19;5031988;28;20050;-78
2021/12/09 07:21:26;;;;;;;21.38;9.13;;;;;;;0.62;100.00;100030.84;5036426;28;20875;-73
2021/12/09 07:23:53;;;;;;;24.20;9.60;;;;;;;0.60;100.00;100027.69;5029694;28;20445;-74
2021/12/09 07:26:19;;;;;;;22.15;9.85;;;;;;;0.61;100.00;100032.00;5030575;28;20057;-75
2021/12/09 07:28:46;;;;;;;25.38;10.40;;;;;;;0.62;100.00;100030.84;5028921;28;20059;-75
2021/12/09 07:31:15;;;;;;;23.23;9.10;;;;;;;0.60;100.00;100027.69;5030696;28;20051;-74
2021/12/09 07:33:42;;;;;;;27.73;9.10;;;;;;;0.62;100.00;100031.66;5024312;28;20472;-75
2021/12/09 07:36:09;;;;;;;24.23;10.18;;;;;;;0.60;100.00;100033.91;5038427;28;20588;-74
2021/12/09 07:38:35;;;;;;;25.23;10.93;;;;;;;0.60;100.00;100044.81;5038269;28;20052;-75
2021/12/09 07:41:03;;;;;;;31.08;11.77;;;;;;;0.59;100.00;100034.25;5036559;28;20081;-75
2021/12/09 07:43:29;;;;;;;25.10;10.48;;;;;;;0.61;100.00;100042.88;5033593;28;20490;-76
2021/12/09 07:45:56;;;;;;;27.63;10.95;;;;;;;0.64;100.00;100051.13;5018477;28;20057;-79
2021/12/09 07:48:22;;;;;;;29.33;11.85;;;;;;;0.66;100.00;100051.59;5030772;28;20049;-77
2021/12/09 07:50:49;;;;;;;23.92;10.35;;;;;;;0.69;100.00;100061.78;5035374;28;20107;-75
2021/12/09 07:53:17;;;;;;;28.98;12.75;;;;;;;0.68;100.00;100053.97;5029511;28;20088;-76
2021/12/09 07:55:44;;;;;;;26.13;10.95;;;;;;;0.70;100.00;100059.84;5028886;28;20183;-76
2021/12/09 07:58:11;;;;;;;26.83;10.13;;;;;;;0.73;100.00;100056.44;5032402;28;20800;-77
2021/12/09 08:00:37;;;;;;;28.02;10.27;;;;;;;0.74;100.00;100053.34;5028106;28;20459;-75
2021/12/09 08:03:05;;;;;;;31.00;9.73;;;;;;;0.76;100.00;100053.00;5030156;28;20082;-75
2021/12/09 08:05:36;;;;;;;34.20;11.82;;;;;;;0.77;100.00;100058.13;5030474;28;20142;-75
2021/12/09 08:08:04;;;;;;;33.67;11.50;;;;;;;0.84;100.00;100065.69;5019925;28;20510;-75
2021/12/09 08:10:32;;;;;;;26.30;10.02;;;;;;;0.85;100.00;100065.34;5029783;28;20660;-75
2021/12/09 08:13:00;;;;;;;28.50;11.23;;;;;;;0.83;100.00;100059.44;5030294;28;20053;-77
2021/12/09 08:15:32;;;;;;;33.53;8.90;;;;;;;0.94;100.00;100051.56;5030237;28;20049;-76
2021/12/09 08:18:14;;;;;;;25.38;8.40;;;;;;;1.17;100.00;100058.00;5032370;28;20052;-76
2021/12/09 08:20:42;;;;;;;20.45;8.35;;;;;;;1.30;100.00;100062.22;5037450;28;20284;-76
2021/12/09 08:23:08;;;;;;;21.77;8.85;;;;;;;1.49;100.00;100063.09;5030728;28;20133;-75
2021/12/09 08:25:35;;;;;;;32.33;8.27;;;;;;;1.56;100.00;100070.69;5029964;28;20566;-74
2021/12/09 08:28:01;;;;;;;25.33;8.20;;;;;;;1.71;100.00;100069.88;5027967;28;20064;-74
2021/12/09 08:30:28;;;;;;;8.18;3.22;;;;;;;1.89;100.00;100073.81;5029021;28;20049;-76
2021/12/09 08:33:18;;;;;;;20.38;7.22;;;;;;;2.01;100.00;100068.22;5040363;28;20436;-74
2021/12/09 08:35:44;;;;;;;18.88;6.40;;;;;;;2.18;100.00;100068.63;5031100;28;20084;-75
2021/12/09 08:38:11;;;;;;;21.15;6.57;;;;;;;2.37;100.00;100078.78;5031213;28;20513;-75
2021/12/09 08:40:37;;;;;;;16.52;5.70;;;;;;;2.48;100.00;100063.41;5029517;28;20128;-74
2021/12/09 08:43:04;;;;;;;13.73;4.15;;;;;;;2.60;100.00;100069.53;5031231;28;20050;-74
2021/12/09 08:45:31;;;;;;;16.45;5.63;;;;;;;2.71;100.00;100067.78;5031907;28;20067;-75
2021/12/09 08:47:58;;;;;;;13.63;5.32;;;;;;;2.84;100.00;100073.91;5033221;28;20041;-68
2021/12/09 08:50:27;;;;;;;21.85;6.88;;;;;;;2.95;100.00;100074.91;5031265;28;20045;-71
2021/12/09 08:52:53;;;;;;;22.45;7.30;;;;;;;3.06;100.00;100084.06;5029045;28;20681;-73
2021/12/09 08:55:22;;;;;;;20.35;6.95;;;;;;;3.09;100.00;100083.34;5029016;28;20469;-75
2021/12/09 08:57:49;;;;;;;21.13;6.82;;;;;;;3.17;100.00;100090.53;5029764;28;20056;-75
2021/12/09 09:00:17;;;;;;;29.90;6.68;;;;;;;3.25;100.00;100088.72;5033107;28;20421;-75
2021/12/09 09:02:46;;;;;;;25.80;7.25;;;;;;;3.34;100.00;100090.06;5031681;28;20060;-75
2021/12/09 09:05:13;;;;;;;20.60;6.30;;;;;;;3.41;100.00;100081.97;5024249;28;20718;-74
2021/12/09 09:07:45;;;;;;;17.60;5.43;;;;;;;3.47;100.00;100087.94;5027601;28;20054;-76
2021/12/09 09:10:15;;;;;;;16.05;6.88;;;;;;;3.57;100.00;100085.38;5028896;28;20054;-74
2021/12/09 09:12:42;;;;;;;24.10;7.45;;;;;;;3.68;100.00;100089.06;5027083;28;20136;-76
2021/12/09 09:15:14;;;;;;;19.58;6.90;;;;;;;3.73;100.00;100082.50;5037904;28;20540;-76
2021/12/09 09:17:40;;;;;;;21.42;7.05;;;;;;;3.87;100.00;100086.25;5031573;28;20084;-76
2021/12/09 09:20:10;;;;;;;27.90;7.38;;;;;;;3.93;100.00;100084.81;5007253;28;20104;-76
2021/12/09 09:22:38;;;;;;;22.92;6.60;;;;;;;4.04;100.00;100091.22;5027964;28;20457;-75
2021/12/09 09:25:07;;;;;;;20.38;6.63;;;;;;;4.16;100.00;100101.16;5035455;28;20512;-77
2021/12/09 09:27:35;;;;;;;25.55;7.30;;;;;;;4.28;100.00;100101.72;5025683;28;20049;-76
2021/12/09 09:30:05;;;;;;;16.60;5.82;;;;;;;4.36;100.00;100105.38;5021466;28;20203;-76
2021/12/09 09:32:33;;;;;;;17.55;6.00;;;;;;;4.51;100.00;100107.94;5026043;28;20096;-76
2021/12/09 09:35:00;;;;;;;3.17;1.70;;;;;;;4.59;100.00;100108.81;5025770;28;20484;-74
2021/12/09 09:37:26;;;;;;;13.90;5.20;;;;;;;4.74;100.00;100100.41;5017013;28;20056;-79
2021/12/09 09:39:59;;;;;;;24.27;6.72;;;;;;;4.88;100.00;100099.78;5015642;28;20061;-77
2021/12/09 09:44:58;;;;;;;18.67;5.75;;;;;;;4.93;100.00;100107.69;5028185;28;20061;-77
2021/12/09 09:47:27;;;;;;;18.25;5.93;;;;;;;4.91;100.00;100099.03;5028488;28;20252;-77
2021/12/09 09:49:55;;;;;;;27.90;6.68;;;;;;;4.95;100.00;100106.13;5027962;28;20089;-76
2021/12/09 09:52:22;;;;;;;23.52;5.68;;;;;;;4.93;99.81;100111.19;5027152;28;20274;-75
2021/12/09 09:54:49;;;;;;;6.65;2.75;;;;;;;4.93;99.88;100102.97;5023431;28;20075;-75
2021/12/09 09:57:16;;;;;;;15.82;5.30;;;;;;;5.01;100.00;100118.34;5023711;28;20560;-76
2021/12/09 09:59:42;;;;;;;26.30;6.95;;;;;;;5.00;100.00;100116.00;5029673;28;20057;-75
2021/12/09 10:02:11;;;;;;;17.73;4.72;;;;;;;4.97;99.61;100120.25;5025110;28;20069;-74
2021/12/09 10:07:06;;;;;;;19.35;6.45;;;;;;;5.06;99.62;100122.69;5032978;28;20136;-74
2021/12/09 10:09:33;;;;;;;23.05;6.45;;;;;;;5.09;99.85;100128.22;5026571;28;20128;-74
2021/12/09 10:12:00;;;;;;;16.80;5.63;;;;;;;5.02;99.58;100117.19;5037974;28;20077;-75
2021/12/09 10:14:32;;;;;;;4.38;1.88;;;;;;;5.00;99.31;100116.75;5034159;28;20103;-76
2021/12/09 10:17:12;;;;;;;20.67;5.45;;;;;;;5.06;99.45;100120.75;5027195;28;20041;-75
2021/12/09 10:19:46;;;;;;;6.18;2.40;;;;;;;5.03;99.04;100118.75;5035200;28;20252;-75
2021/12/09 10:22:16;;;;;;;11.45;3.97;;;;;;;5.09;99.23;100117.25;5038563;28;20069;-75
2021/12/09 10:24:45;;;;;;;13.20;3.80;;;;;;;5.07;98.94;100119.56;5036479;28;20136;-75
2021/12/09 10:27:34;;;;;;;7.50;2.25;;;;;;;5.07;98.44;100092.16;5032941;28;20502;-76
2021/12/09 10:30:22;;;;;;;8.90;3.47;;;;;;;5.20;98.19;100109.94;5036760;28;20049;-73
2021/12/09 10:32:50;;;;;;;10.20;3.40;;;;;;;5.19;97.90;100111.09;5022849;28;20053;-76
2021/12/09 10:35:19;;;;;;;20.63;5.38;;;;;;;5.18;97.42;100097.78;5020463;28;20556;-76
2021/12/09 10:37:49;;;;;;;5.53;1.98;;;;;;;5.29;97.25;100098.66;5020057;28;20127;-75
2021/12/09 10:40:19;;;;;;;10.05;3.13;;;;;;;5.26;97.01;100094.72;5033264;28;20057;-75
2021/12/09 10:42:49;;;;;;;10.65;3.42;;;;;;;5.35;97.23;100084.25;5032042;28;20140;-77
2021/12/09 10:45:20;;;;;;;9.13;4.05;;;;;;;5.33;97.20;100078.34;5031122;28;20176;-75
2021/12/09 10:48:04;;;;;;;5.07;1.55;;;;;;;5.38;96.84;100079.94;5025403;28;20053;-76
2021/12/09 10:50:39;;;;;;;4.22;1.88;;;;;;;5.43;96.85;100071.38;5031336;28;20091;-77
2021/12/09 10:55:51;;;;;;;9.95;2.58;;;;;;;5.44;96.28;100079.22;5020469;28;20053;-76
2021/12/09 10:58:20;;;;;;;6.32;2.58;;;;;;;5.44;95.93;100062.75;5025820;28;20148;-77
2021/12/09 11:00:59;;;;;;;13.73;3.75;;;;;;;5.56;95.55;100067.16;5020044;28;20077;-76
2021/12/09 11:03:27;;;;;;;15.30;3.58;;;;;;;5.57;96.29;100066.00;5025158;28;20076;-77
2021/12/09 11:06:03;;;;;;;12.82;3.00;;;;;;;5.56;95.84;100075.41;5030761;28;20140;-77
2021/12/09 11:08:32;;;;;;;12.57;4.05;;;;;;;5.54;94.94;100072.28;5017505;28;20045;-77
2021/12/09 11:11:32;;;;;;;12.30;3.90;;;;;;;5.60;95.06;100058.97;5025585;28;20691;-76
2021/12/09 11:14:02;;;;;;;14.82;3.55;;;;;;;5.61;95.03;100074.28;5024833;28;20115;-77
2021/12/09 11:16:33;;;;;;;16.23;4.30;;;;;;;5.66;94.96;100068.41;5018088;28;20141;-76
2021/12/09 11:19:24;;;;;;;8.00;2.25;;;;;;;5.69;94.60;100052.00;5027402;28;20055;-76
2021/12/09 11:21:58;;;;;;;3.92;2.08;;;;;;;5.74;94.94;100048.88;5031361;28;20060;-76
2021/12/09 11:24:30;;;;;;;6.15;2.33;;;;;;;5.69;94.11;100049.25;5033638;28;20053;-73
2021/12/09 11:27:08;;;;;;;5.55;2.10;;;;;;;5.71;94.20;100049.66;5031976;28;20053;-81
2021/12/09 11:29:47;;;;;;;13.65;3.75;;;;;;;5.78;93.99;100046.97;5033586;28;20076;-76
2021/12/09 11:32:38;;;;;;;15.32;4.30;;;;;;;5.70;93.79;100042.59;5030813;28;20421;-74
2021/12/09 11:35:20;;;;;;;9.90;2.97;;;;;;;5.72;93.80;100043.00;5027206;28;20045;-76
2021/12/09 11:40:34;;;;;;;12.48;4.93;;;;;;;5.79;93.08;100045.81;5024725;28;20124;-74
2021/12/09 11:43:04;;;;;;;9.53;3.63;;;;;;;5.72;93.52;100043.00;5016162;28;20049;-77